Latest Coastal Weather Observations for Derby

IDW60701

Issued at 5:53 am WST Monday 19 February 2018 (issued every 10 minutes, with the page automatically refreshed every 10 minutes)

About coastal observations | Map of coastal stations | Coastal observations for WA | Marine services | Other Formats
Station Details ID: 003032 Name: DERBY AERO Lat: -17.37 Lon: 123.66 Height: 6.2 m
Data from the previous 72 hours. | See also: Recent months at Derby
Date/Time
WST
Temp
°C
Wind Pressure Rain since
9am
mm
Weather Cloud Vis
km
Sea
Height
m
Swell
Dir  Spd
kts
Gust
kts
hPa Trend Height
m
Period
s
Dir
19/05:30am 27.7 NNW 13 17 1003.2 - 40.6 - Partly cloudy 10 - - - -
19/05:00am 27.8 NNW 14 18 1002.8 - 40.6 - Partly cloudy 10 - - - -
19/04:59am 27.8 NNW 15 18 1002.8 - 40.6 - Partly cloudy 10 - - - -
19/04:40am 27.6 NNW 11 15 1002.6 - 40.6 - Partly cloudy 4 - - - -
19/04:30am 27.3 NNW 12 16 1002.6 - 40.6 - Partly cloudy 9 - - - -
19/04:00am 28.0 NNW 14 18 1002.5 - 40.4 - Partly cloudy 10 - - - -
19/03:30am 28.0 NNW 14 19 1002.2 - 40.4 - Partly cloudy 10 - - - -
19/03:00am 28.0 NNW 13 18 1002.2 - 40.4 - Cloudy 10 - - - -
19/02:30am 27.9 NNW 13 17 1002.3 - 40.4 - Partly cloudy 10 - - - -
19/02:00am 27.9 NNW 14 18 1002.6 - 40.4 - Partly cloudy 10 - - - -
19/01:30am 27.7 N 12 15 1002.5 - 40.4 - Partly cloudy 10 - - - -
19/01:00am 27.5 N 12 16 1002.5 - 40.4 - Partly cloudy 10 - - - -
19/12:30am 27.5 N 12 16 1002.7 - 40.4 - Partly cloudy 10 - - - -
19/12:00am 27.3 N 11 15 1002.8 - 40.4 - Cloudy 10 - - - -
 
Date/Time
WST
Temp
°C
Wind Pressure Rain since
9am
mm
Weather Cloud Vis
km
Sea
Height
m
Swell
Dir  Spd
kts
Gust
kts
hPa Trend Height
m
Period
s
Dir
18/11:30pm 27.3 N 10 14 1003.2 - 40.4 - - 10 - - - -
18/11:00pm 27.2 N 10 16 1003.8 - 40.4 - Partly cloudy 10 - - - -
18/10:30pm 26.6 N 9 11 1004.1 - 40.4 - Partly cloudy 10 - - - -
18/10:00pm 26.8 N 11 15 1004.2 - 40.4 - Partly cloudy 10 - - - -
18/09:30pm 27.4 N 16 22 1004.1 - 40.4 - Partly cloudy 10 - - - -
18/09:26pm 27.5 N 16 22 1004.1 - 40.4 - Partly cloudy 10 - - - -
18/09:00pm 26.2 N 9 12 1004.1 - 40.4 - Cloudy 10 - - - -
18/08:30pm 25.8 N 9 13 1003.8 - 40.4 - Partly cloudy 10 - - - -
18/08:00pm 25.4 NNE 9 12 1003.8 - 40.4 - Partly cloudy 10 - - - -
18/07:30pm 25.5 N 9 12 1003.5 - 40.4 - Partly cloudy 10 - - - -
18/07:00pm 25.9 NNW 12 17 1003.2 - 40.4 - Partly cloudy 10 - - - -
18/06:30pm 25.2 NNW 16 21 1002.8 - 40.4 - Partly cloudy 10 - - - -
18/06:25pm 25.4 NNW 17 22 1002.7 - 40.4 - Partly cloudy 10 - - - -
18/06:01pm 26.1 NNW 14 23 1002.9 - 36.2 - Partly cloudy 5 - - - -
18/06:00pm 26.1 NNW 13 18 1002.9 - 36.0 Rain Cloudy 6 - - - -
18/05:57pm 26.2 NNW 12 18 1002.8 - 35.6 - Partly cloudy 7 - - - -
18/05:38pm 25.9 NW 13 17 1002.6 - 35.0 - Partly cloudy 5 - - - -
18/05:37pm 25.9 NW 14 19 1002.6 - 34.8 - Partly cloudy 6 - - - -
18/05:30pm 25.8 NW 16 22 1002.5 - 34.2 - Partly cloudy 7 - - - -
18/05:07pm 26.1 N 12 15 1002.3 - 23.6 - Partly cloudy 0.8 - - - -
18/05:00pm 26.2 N 12 17 1002.2 - 15.4 - Partly cloudy 1 - - - -
18/04:36pm 26.7 N 10 13 1001.5 - 3.4 - Partly cloudy 5 - - - -
18/04:30pm 27.0 N 10 14 1001.6 - 2.8 - Partly cloudy 8 - - - -
18/04:00pm 28.0 N 13 18 1001.3 - 2.2 - Partly cloudy 10 - - - -
18/03:30pm 28.4 N 16 22 1001.0 - 2.2 - Partly cloudy 10 - - - -
18/03:00pm 28.4 N 17 24 1000.9 - 2.2 - Cloudy 10 - - - -
18/02:30pm 28.2 N 15 19 1001.2 - 2.2 - Partly cloudy 10 - - - -
18/02:00pm 28.0 NNE 16 20 1001.4 - 2.2 - Partly cloudy 10 - - - -
18/01:30pm 27.7 N 14 20 1001.8 - 2.2 - Partly cloudy 10 - - - -
18/01:00pm 26.8 N 11 15 1001.8 - 2.2 - Partly cloudy 10 - - - -
18/12:30pm 25.9 NNE 11 15 1001.9 - 2.2 - Partly cloudy 10 - - - -
18/12:00pm 25.6 N 14 20 1002.5 - 2.2 Showers Mostly cloudy 10 - - - -
18/11:30am 25.6 NNE 12 17 1003.2 - 2.0 - Partly cloudy 10 - - - -
18/11:00am 25.3 NNE 11 15 1002.8 - 2.0 - Partly cloudy 10 - - - -
18/10:59am 25.3 NNE 11 15 1002.9 - 2.0 - Partly cloudy 10 - - - -
18/10:30am 25.6 N 12 16 1003.6 - 1.8 - Partly cloudy 10 - - - -
18/10:29am 25.5 N 13 16 1003.6 - 1.8 - Partly cloudy 10 - - - -
18/10:16am 25.4 N 11 15 1003.7 - 1.8 - Partly cloudy 10 - - - -
18/10:10am 25.5 N 11 15 1003.4 - 1.8 - Partly cloudy 7 - - - -
18/10:00am 25.5 N 15 21 1003.5 - 1.4 - Partly cloudy 5 - - - -
18/09:51am 25.6 N 15 21 1003.7 - 0.8 - Partly cloudy 5 - - - -
18/09:30am 26.5 NNE 14 20 1003.2 - 0.0 - Partly cloudy 10 - - - -
18/09:28am 26.5 NNE 14 18 1003.1 - 0.0 - Partly cloudy 10 - - - -
18/09:00am 26.0 NNE 14 20 1003.5 - 57.4 Rain Cloudy 10 - - - -
18/08:40am 25.4 NNE 12 17 1003.5 - 57.4 - Partly cloudy 10 - - - -
18/08:35am 25.3 NNE 13 19 1003.5 - 57.4 - Partly cloudy 10 - - - -
18/08:30am 25.2 NNE 14 21 1003.6 - 57.4 - Partly cloudy 10 - - - -
18/08:00am 24.9 NNE 12 18 1004.0 - 53.4 - Partly cloudy 2 - - - -
18/07:59am 24.9 NNE 13 21 1003.9 - 53.2 - Partly cloudy 2 - - - -
18/07:48am 24.9 NNE 13 20 1003.6 - 48.6 - Partly cloudy 3 - - - -
18/07:30am 25.1 N 10 14 1003.4 - 45.8 - Partly cloudy 10 - - - -
18/07:25am 25.0 N 10 14 1003.3 - 45.8 - Partly cloudy 10 - - - -
18/07:12am 25.1 NNE 14 21 1003.2 - 45.8 - Partly cloudy 10 - - - -
18/07:00am 25.2 NNE 15 19 1003.1 - 45.8 - Partly cloudy 3 - - - -
18/06:49am 25.4 NNE 15 21 1003.2 - 43.4 - Partly cloudy 5 - - - -
18/06:30am 25.8 NNE 14 18 1002.4 - 41.4 - Partly cloudy 10 - - - -
18/06:00am 25.8 NNE 13 18 1002.2 - 41.4 - Cloudy 10 - - - -
18/05:30am 25.9 NNE 11 15 1002.1 - 41.4 - Partly cloudy 10 - - - -
18/05:00am 25.5 NNE 11 15 1002.1 - 41.4 - Partly cloudy 10 - - - -
18/04:50am 25.4 NNE 11 14 1002.0 - 41.4 - Partly cloudy 10 - - - -
18/04:30am 25.2 NNE 9 14 1001.9 - 41.4 - Partly cloudy 10 - - - -
18/04:25am 25.1 NNE 9 13 1002.0 - 41.4 - Partly cloudy 10 - - - -
18/04:04am 25.0 NNE 11 15 1001.7 - 41.4 - Partly cloudy 10 - - - -
18/04:00am 25.0 NNE 12 17 1001.7 - 41.4 - Partly cloudy 10 - - - -
18/03:33am 25.0 NE 13 21 1002.1 - 28.2 - Partly cloudy 5 - - - -
18/03:30am 25.1 NE 12 17 1001.5 - 26.0 - Partly cloudy 10 - - - -
18/03:00am 25.2 NE 10 13 1001.5 - 25.6 Rain Cloudy 10 - - - -
18/02:30am 25.1 NE 11 17 1001.6 - 25.6 - Partly cloudy 10 - - - -
18/02:00am 25.1 NE 11 15 1001.6 - 25.4 - Partly cloudy 10 - - - -
18/01:30am 25.0 NE 10 13 1001.7 - 25.4 - Partly cloudy 10 - - - -
18/01:00am 24.9 NE 10 13 1002.4 - 25.4 - Partly cloudy 10 - - - -
18/12:41am 25.1 NNE 8 12 1002.7 - 24.6 - Partly cloudy 10 - - - -
18/12:30am 25.2 NNE 9 13 1002.7 - 24.6 - Partly cloudy 10 - - - -
18/12:00am 25.0 NE 11 13 1002.9 - 24.6 Rain Cloudy 10 - - - -
 
Date/Time
WST
Temp
°C
Wind Pressure Rain since
9am
mm
Weather Cloud Vis
km
Sea
Height
m
Swell
Dir  Spd
kts
Gust
kts
hPa Trend Height
m
Period
s
Dir
17/11:47pm 25.1 NNE 8 13 1002.9 - 24.6 - Partly cloudy 9 - - - -
17/11:30pm 25.0 NNE 9 15 1003.1 - 24.2 - Partly cloudy 2 - - - -
17/11:24pm 25.0 NNE 9 15 1003.3 - 21.2 - Partly cloudy 5 - - - -
17/11:20pm 25.0 NNE 9 13 1003.3 - 19.6 - Partly cloudy 10 - - - -
17/11:00pm 25.2 NNE 11 16 1003.7 - 19.4 - Partly cloudy 10 - - - -
17/10:30pm 25.4 NNE 12 17 1004.2 - 19.4 - Partly cloudy 10 - - - -
17/10:08pm 24.8 NNE 13 20 1004.3 - 19.4 - Partly cloudy 10 - - - -
17/10:00pm 25.2 N 16 22 1004.1 - 19.2 - Partly cloudy 8 - - - -
17/09:34pm 25.3 NNE 13 20 1003.6 - 14.0 - Partly cloudy 4 - - - -
17/09:30pm 25.5 NNE 13 16 1003.8 - 12.4 - Partly cloudy 10 - - - -
17/09:00pm 25.6 NNE 12 18 1003.6 - 12.2 Showers Cloudy 10 - - - -
17/08:30pm 25.7 NNE 12 17 1003.3 - 12.0 - Partly cloudy 10 - - - -
17/08:00pm 25.7 NE 12 16 1003.2 - 11.8 - Partly cloudy 10 - - - -
17/07:45pm 25.5 NE 11 15 1003.3 - 11.8 - Partly cloudy 10 - - - -
17/07:30pm 25.5 NNE 13 17 1003.1 - 11.4 - Partly cloudy 4 - - - -
17/07:25pm 25.6 NNE 12 16 1003.1 - 10.8 - Partly cloudy 5 - - - -
17/07:00pm 25.7 NNE 12 17 1002.6 - 9.6 - Partly cloudy 10 - - - -
17/06:30pm 26.1 NNE 12 15 1002.6 - 8.8 - Partly cloudy 10 - - - -
17/06:00pm 26.5 NNE 12 17 1002.4 - 8.6 Showers Cloudy 10 - - - -
17/05:30pm 26.4 NE 10 14 1002.2 - 8.4 - Partly cloudy 10 - - - -
17/05:00pm 26.3 NNE 11 16 1002.2 - 8.4 - Partly cloudy 10 - - - -
17/04:30pm 26.4 NNE 13 18 1001.9 - 8.4 - Partly cloudy 10 - - - -
17/04:10pm 26.4 NNE 14 19 1001.7 - 8.4 - Partly cloudy 10 - - - -
17/04:00pm 26.3 NNE 13 17 1001.9 - 8.4 - Partly cloudy 10 - - - -
17/03:58pm 26.3 NNE 13 20 1001.9 - 8.4 - Partly cloudy 10 - - - -
17/03:30pm 26.0 NNE 15 20 1001.8 - 8.4 - Partly cloudy 10 - - - -
17/03:00pm 25.5 NNE 15 21 1001.8 - 8.4 Rain Mostly cloudy 10 - - - -
17/02:30pm 25.4 NNE 16 22 1001.8 - 8.2 - Partly cloudy 10 - - - -
17/02:00pm 25.3 NNE 15 22 1002.1 - 7.6 - Partly cloudy 9 - - - -
17/01:30pm 25.6 NNE 16 21 1002.5 - 6.2 - Partly cloudy 10 - - - -
17/01:00pm 25.3 NNE 16 22 1002.8 - 6.0 - Cloudy 10 - - - -
17/12:30pm 25.0 NNE 16 24 1003.3 - 5.4 - Partly cloudy 10 - - - -
17/12:25pm 25.0 NNE 17 24 1003.4 - 5.0 - Partly cloudy - - - - -
17/12:00pm 25.4 NNE 19 25 1003.6 - 3.8 Showers Cloudy 10 - - - -
17/11:43am 25.8 NNE 20 26 1003.5 - 3.6 - Partly cloudy 10 - - - -
17/11:30am 25.7 NNE 15 23 1003.6 - 3.6 - Partly cloudy 10 - - - -
17/11:00am 25.1 NNE 16 22 1003.8 - 3.4 - Partly cloudy 10 - - - -
17/10:37am 25.0 NE 16 21 1003.8 - 2.8 - Partly cloudy 10 - - - -
17/10:30am 25.1 NE 16 22 1003.8 - 2.4 - Partly cloudy 7 - - - -
17/10:22am 25.1 NE 17 24 1003.7 - 1.4 - Partly cloudy 5 - - - -
17/10:00am 25.9 NE 17 23 1004.3 - 0.2 - Partly cloudy 10 - - - -
17/09:30am 25.3 NNE 14 19 1004.6 - 0.2 - Partly cloudy 10 - - - -
17/09:00am 24.7 NE 14 20 1004.4 - 80.6 Rain Cloudy 10 - - - -
17/08:30am 24.6 NE 15 21 1004.5 - 79.8 - Cloudy 10 - - - -
17/08:00am 24.5 NE 13 20 1004.3 - 79.0 - Cloudy 10 - - - -
17/07:30am 24.5 NE 13 23 1004.7 - 77.2 - Partly cloudy 10 - - - -
17/07:00am 24.4 NE 13 19 1004.5 - 75.2 - Partly cloudy 10 - - - -
17/06:56am 24.4 NE 13 18 1004.5 - 75.0 - Partly cloudy 10 - - - -
17/06:43am 24.2 NE 14 21 1004.3 - 74.0 - Partly cloudy 5 - - - -
17/06:30am 24.3 NE 15 22 1004.2 - 72.0 - Partly cloudy 4 - - - -
17/06:27am 24.3 NE 15 22 1004.1 - 71.6 - Partly cloudy 5 - - - -
17/06:00am 24.5 NE 12 21 1003.9 - 70.4 Rain Cloudy 10 - - - -
17/05:45am 24.4 NE 12 19 1003.7 - 70.4 - Partly cloudy 10 - - - -
17/05:33am 24.4 NE 12 20 1003.7 - 70.0 - Partly cloudy 10 - - - -
17/05:30am 24.4 NE 13 20 1003.7 - 69.8 - Partly cloudy 10 - - - -
17/05:15am 24.3 NE 13 20 1003.4 - 69.8 - Partly cloudy 10 - - - -
17/05:00am 24.4 NE 14 22 1003.2 - 69.4 - Partly cloudy 10 - - - -
17/04:30am 24.2 ENE 11 16 1003.3 - 69.0 - Partly cloudy 10 - - - -
17/04:00am 24.2 NE 11 16 1003.6 - 68.0 - Partly cloudy 9 - - - -
17/03:30am 24.4 NE 13 20 1003.2 - 65.4 - Partly cloudy 8 - - - -
17/03:00am 24.5 NE 14 19 1003.2 - 64.0 Showers Cloudy 10 - - - -
17/02:37am 24.5 NE 13 19 1003.3 - 63.8 - Partly cloudy 10 - - - -
17/02:30am 24.6 NE 13 19 1003.5 - 63.8 - Partly cloudy 10 - - - -
17/02:11am 24.6 NE 14 20 1003.6 - 63.8 - Partly cloudy 10 - - - -
17/02:04am 24.7 NE 14 19 1003.6 - 63.8 - Partly cloudy 10 - - - -
17/02:00am 24.6 NE 13 17 1003.5 - 63.8 - Partly cloudy 10 - - - -
17/01:51am 24.6 NE 11 20 1003.6 - 63.8 - Partly cloudy 10 - - - -
17/01:42am 24.5 NE 12 19 1003.6 - 63.8 - Partly cloudy 10 - - - -
17/01:30am 24.5 NE 13 18 1003.5 - 63.8 - Partly cloudy 10 - - - -
17/01:03am 24.5 NE 13 19 1003.9 - 63.6 - Partly cloudy 10 - - - -
17/01:00am 24.5 NE 13 19 1003.9 - 63.6 - Partly cloudy 10 - - - -
17/12:46am 24.5 NE 12 17 1004.1 - 63.0 - Partly cloudy 5 - - - -
17/12:30am 24.6 NE 13 21 1004.3 - 62.2 - Partly cloudy 10 - - - -
17/12:27am 24.6 NE 13 20 1004.3 - 62.2 - Partly cloudy 10 - - - -
17/12:01am 24.6 NE 12 18 1005.0 - 60.8 - Partly cloudy 5 - - - -
17/12:00am 24.6 NE 12 18 1005.0 - 60.8 Rain Cloudy 6 - - - -
 
Date/Time
WST
Temp
°C
Wind Pressure Rain since
9am
mm
Weather Cloud Vis
km
Sea
Height
m
Swell
Dir  Spd
kts
Gust
kts
hPa Trend Height
m
Period
s
Dir
16/11:30pm 24.6 NE 11 19 1005.0 - 60.0 - Partly cloudy 10 - - - -
16/11:00pm 24.7 ENE 12 21 1005.1 - 60.0 - Partly cloudy 10 - - - -
16/10:30pm 24.7 NE 13 20 1005.5 - 59.8 - Partly cloudy 10 - - - -
16/10:00pm 24.6 ENE 14 19 1005.6 - 59.6 - Partly cloudy 10 - - - -
16/09:37pm 24.6 ENE 14 21 1005.4 - 59.2 - Partly cloudy 10 - - - -
16/09:30pm 24.5 ENE 11 19 1005.4 - 59.0 - Partly cloudy 10 - - - -
16/09:17pm 24.5 ENE 13 19 1005.7 - 58.4 - Partly cloudy 10 - - - -
16/09:00pm 24.5 ENE 12 19 1005.8 - 58.2 Showers Mostly cloudy 10 - - - -
16/08:30pm 24.3 ENE 13 19 1005.4 - 57.8 - Partly cloudy 10 - - - -
16/08:19pm 24.3 ENE 14 19 1005.5 - 57.6 - Partly cloudy 9 - - - -
16/08:00pm 24.3 ENE 13 18 1005.2 - 56.2 - Partly cloudy 1 - - - -
16/07:49pm 24.4 ENE 14 20 1005.4 - 54.2 - Partly cloudy 5 - - - -
16/07:30pm 24.7 ENE 13 19 1005.4 - 53.2 - Partly cloudy 10 - - - -
16/07:00pm 24.7 ENE 15 22 1004.6 - 52.6 - Partly cloudy 10 - - - -
16/06:52pm 24.8 ENE 15 22 1004.4 - 52.6 - Partly cloudy 10 - - - -
16/06:30pm 24.8 ENE 14 21 1004.3 - 52.6 - Partly cloudy 10 - - - -
16/06:24pm 24.8 ENE 14 21 1004.0 - 52.6 - Partly cloudy 10 - - - -
16/06:06pm 24.7 ENE 11 17 1004.1 - 52.6 - Partly cloudy 10 - - - -
16/06:00pm 24.6 ENE 11 20 1004.2 - 52.4 Rain Mostly cloudy 8 - - - -
16/05:49pm 24.6 ENE 13 19 1003.9 - 51.6 - Partly cloudy 5 - - - -
16/05:30pm 24.6 ENE 11 17 1004.1 - 50.2 - Partly cloudy 6 - - - -
16/05:29pm 24.6 ENE 11 14 1004.2 - 50.0 - Partly cloudy 6 - - - -
16/05:11pm 24.6 ENE 13 18 1004.1 - 47.8 - Partly cloudy 5 - - - -
16/05:00pm 24.6 ENE 13 21 1004.2 - 46.2 - Partly cloudy 10 - - - -
16/04:37pm 24.7 ENE 14 19 1003.8 - 44.8 - Partly cloudy 10 - - - -
16/04:30pm 24.7 ENE 13 19 1003.7 - 44.8 - Partly cloudy 10 - - - -
16/04:00pm 24.5 ENE 13 20 1003.7 - 44.6 - Partly cloudy 10 - - - -
16/03:30pm 24.5 ENE 15 21 1003.6 - 44.0 - Partly cloudy - - - - -
16/03:19pm 24.4 ENE 14 21 1003.6 - 43.8 - Partly cloudy - - - - -
16/03:00pm 24.5 NE 15 22 1003.8 - 42.6 Rain Cloudy - - - - -
16/02:30pm 24.6 ENE 15 23 1003.9 - 40.8 - Partly cloudy 10 - - - -
16/02:13pm 24.4 ENE 17 25 1004.1 - 40.0 - Partly cloudy 7 - - - -
16/02:00pm 24.5 ENE 15 21 1004.1 - 39.0 - Partly cloudy 5 - - - -
16/01:55pm 24.5 ENE 15 22 1004.2 - 38.6 - Partly cloudy 5 - - - -
16/01:44pm 24.6 ENE 17 23 1004.0 - 37.2 - Partly cloudy 7 - - - -
16/01:30pm 24.8 ENE 15 21 1004.2 - 35.8 - Partly cloudy 7 - - - -
16/01:19pm 24.9 ENE 15 23 1004.3 - 34.6 - Partly cloudy 10 - - - -
16/01:00pm 24.9 ENE 15 23 1004.3 - 33.8 - Partly cloudy 3 - - - -
16/12:31pm 24.8 ENE 12 20 1004.5 - 30.4 - Partly cloudy 5 - - - -
16/12:30pm 24.8 ENE 13 20 1004.5 - 30.2 - Partly cloudy 6 - - - -
16/12:28pm 24.8 ENE 13 20 1004.6 - 29.8 - Partly cloudy 7 - - - -
16/12:22pm 24.7 ENE 13 21 1004.6 - 29.2 - Partly cloudy 7 - - - -
16/12:00pm 24.5 ENE 12 17 1005.3 - 26.4 Rain Cloudy 2 - - - -
16/11:30am 24.3 ENE 13 19 1005.2 - 17.8 - Partly cloudy 2 - - - -
16/11:16am 24.5 ENE 14 21 1005.2 - 11.6 - Partly cloudy 4 - - - -
16/11:05am 24.6 ENE 14 21 1005.3 - 9.0 - Partly cloudy 5 - - - -
16/11:00am 24.6 NE 14 22 1005.3 - 7.8 - Partly cloudy 8 - - - -
16/10:41am 24.6 ENE 13 19 1005.3 - 6.8 - Partly cloudy 10 - - - -
16/10:30am 24.6 NE 13 20 1005.3 - 6.8 - Partly cloudy 5 - - - -
16/10:00am 24.8 NE 15 22 1005.5 - 2.8 - Partly cloudy 4 - - - -
16/09:59am 24.9 NE 15 22 1005.5 - 2.4 - Partly cloudy 5 - - - -
16/09:30am 25.0 ENE 15 21 1005.3 - 0.4 - Partly cloudy 10 - - - -
16/09:00am 25.0 NE 17 25 1005.4 - 50.4 Showers Cloudy 10 - - - -
16/08:30am 25.2 NE 13 19 1005.3 - 49.8 - Partly cloudy 10 - - - -
16/08:00am 25.2 NE 15 22 1005.0 - 49.6 - Partly cloudy 10 - - - -
16/07:42am 25.1 ENE 14 21 1004.7 - 49.6 - Partly cloudy 9 - - - -
16/07:30am 25.3 ENE 15 21 1004.2 - 49.6 - Partly cloudy 10 - - - -
16/07:29am 25.3 ENE 15 21 1004.1 - 49.6 - Partly cloudy 10 - - - -
16/07:00am 25.4 ENE 15 23 1004.2 - 49.6 - Partly cloudy 10 - - - -
16/06:30am 25.2 ENE 14 21 1003.9 - 49.6 - Cloudy 10 - - - -
16/06:14am 24.9 ENE 13 20 1003.8 - 49.6 - Partly cloudy 10 - - - -
16/06:00am 24.9 ENE 13 20 1003.6 - 49.6 Recent precip. Cloudy 10 - - - -

Other Formats:

Comma delimited format used in spreadsheet applications
http://www.bom.gov.au/fwo/IDW60701/IDW60701.95205.axf

JavaScript Object Notation format (JSON) in row-major order
http://www.bom.gov.au/fwo/IDW60701/IDW60701.95205.json